sensor_id;sensor_type;location;lat;lon;timestamp;temperature;humidity
71868;DHT22;59738;48.324;14.230;2022-07-06T00:01:03;17.30;99.90
71868;DHT22;59738;48.324;14.230;2022-07-06T00:03:30;17.20;99.90
71868;DHT22;59738;48.324;14.230;2022-07-06T00:05:58;17.00;99.90
71868;DHT22;59738;48.324;14.230;2022-07-06T00:08:26;17.00;99.90
71868;DHT22;59738;48.324;14.230;2022-07-06T00:10:54;17.10;99.90
71868;DHT22;59738;48.324;14.230;2022-07-06T00:13:21;17.10;99.90
71868;DHT22;59738;48.324;14.230;2022-07-06T00:15:49;17.30;99.80
71868;DHT22;59738;48.324;14.230;2022-07-06T00:18:18;17.30;98.90
71868;DHT22;59738;48.324;14.230;2022-07-06T00:20:46;17.30;99.50
71868;DHT22;59738;48.324;14.230;2022-07-06T00:23:13;17.20;99.80
71868;DHT22;59738;48.324;14.230;2022-07-06T00:25:41;17.20;99.90
71868;DHT22;59738;48.324;14.230;2022-07-06T00:28:09;17.20;99.90
71868;DHT22;59738;48.324;14.230;2022-07-06T00:30:37;17.40;99.30
71868;DHT22;59738;48.324;14.230;2022-07-06T00:33:04;17.30;99.50
71868;DHT22;59738;48.324;14.230;2022-07-06T00:35:34;17.30;99.80
71868;DHT22;59738;48.324;14.230;2022-07-06T00:38:03;17.20;99.90
71868;DHT22;59738;48.324;14.230;2022-07-06T00:40:31;17.10;99.90
71868;DHT22;59738;48.324;14.230;2022-07-06T00:42:59;17.10;99.90
71868;DHT22;59738;48.324;14.230;2022-07-06T00:45:26;17.00;99.90
71868;DHT22;59738;48.324;14.230;2022-07-06T00:47:54;17.00;99.90
71868;DHT22;59738;48.324;14.230;2022-07-06T00:50:23;17.00;99.90
71868;DHT22;59738;48.324;14.230;2022-07-06T00:52:54;17.00;99.90
71868;DHT22;59738;48.324;14.230;2022-07-06T00:55:24;16.80;99.90
71868;DHT22;59738;48.324;14.230;2022-07-06T00:57:52;16.70;99.90
71868;DHT22;59738;48.324;14.230;2022-07-06T01:00:22;16.70;99.90
71868;DHT22;59738;48.324;14.230;2022-07-06T01:02:51;16.60;99.90
71868;DHT22;59738;48.324;14.230;2022-07-06T01:05:21;16.60;99.90
71868;DHT22;59738;48.324;14.230;2022-07-06T01:07:50;16.70;99.90
71868;DHT22;59738;48.324;14.230;2022-07-06T01:10:21;16.70;99.90
71868;DHT22;59738;48.324;14.230;2022-07-06T01:12:49;16.80;99.90
71868;DHT22;59738;48.324;14.230;2022-07-06T01:15:19;16.80;99.90
71868;DHT22;59738;48.324;14.230;2022-07-06T01:17:47;16.60;99.90
71868;DHT22;59738;48.324;14.230;2022-07-06T01:20:18;16.40;99.90
71868;DHT22;59738;48.324;14.230;2022-07-06T01:22:47;16.30;99.90
71868;DHT22;59738;48.324;14.230;2022-07-06T01:25:16;16.30;99.90
71868;DHT22;59738;48.324;14.230;2022-07-06T01:27:43;16.30;99.90
71868;DHT22;59738;48.324;14.230;2022-07-06T01:30:13;16.30;99.90
71868;DHT22;59738;48.324;14.230;2022-07-06T01:32:42;16.40;99.90
71868;DHT22;59738;48.324;14.230;2022-07-06T01:35:11;16.40;99.90
71868;DHT22;59738;48.324;14.230;2022-07-06T01:37:41;16.40;99.90
71868;DHT22;59738;48.324;14.230;2022-07-06T01:40:10;16.40;99.90
71868;DHT22;59738;48.324;14.230;2022-07-06T01:42:38;16.50;99.90
71868;DHT22;59738;48.324;14.230;2022-07-06T01:45:07;16.70;99.90
71868;DHT22;59738;48.324;14.230;2022-07-06T01:47:36;16.70;99.90
71868;DHT22;59738;48.324;14.230;2022-07-06T01:50:06;16.70;99.90
71868;DHT22;59738;48.324;14.230;2022-07-06T01:52:37;16.70;99.90
71868;DHT22;59738;48.324;14.230;2022-07-06T01:55:07;16.60;99.90
71868;DHT22;59738;48.324;14.230;2022-07-06T01:57:37;16.50;99.90
71868;DHT22;59738;48.324;14.230;2022-07-06T02:00:07;16.60;99.90
71868;DHT22;59738;48.324;14.230;2022-07-06T02:02:45;16.60;99.90
71868;DHT22;59738;48.324;14.230;2022-07-06T02:05:12;16.60;99.90
71868;DHT22;59738;48.324;14.230;2022-07-06T02:07:40;16.60;99.90
71868;DHT22;59738;48.324;14.230;2022-07-06T02:10:11;16.60;99.90
71868;DHT22;59738;48.324;14.230;2022-07-06T02:12:39;16.50;99.90
71868;DHT22;59738;48.324;14.230;2022-07-06T02:15:08;16.40;99.90
71868;DHT22;59738;48.324;14.230;2022-07-06T02:17:36;16.30;99.90
71868;DHT22;59738;48.324;14.230;2022-07-06T02:20:04;16.20;99.90
71868;DHT22;59738;48.324;14.230;2022-07-06T02:22:32;16.20;99.90
71868;DHT22;59738;48.324;14.230;2022-07-06T02:25:01;16.10;99.90
71868;DHT22;59738;48.324;14.230;2022-07-06T02:27:31;16.10;99.90
71868;DHT22;59738;48.324;14.230;2022-07-06T02:30:03;16.10;99.90
71868;DHT22;59738;48.324;14.230;2022-07-06T02:32:32;16.00;99.90
71868;DHT22;59738;48.324;14.230;2022-07-06T02:35:00;16.10;99.90
71868;DHT22;59738;48.324;14.230;2022-07-06T02:37:28;16.10;99.90
71868;DHT22;59738;48.324;14.230;2022-07-06T02:39:56;16.00;99.90
71868;DHT22;59738;48.324;14.230;2022-07-06T02:42:23;16.10;99.90
71868;DHT22;59738;48.324;14.230;2022-07-06T02:44:54;16.10;99.90
71868;DHT22;59738;48.324;14.230;2022-07-06T02:47:22;16.10;99.90
71868;DHT22;59738;48.324;14.230;2022-07-06T02:49:50;16.00;99.90
71868;DHT22;59738;48.324;14.230;2022-07-06T02:52:18;15.90;99.90
71868;DHT22;59738;48.324;14.230;2022-07-06T02:54:46;15.80;99.90
71868;DHT22;59738;48.324;14.230;2022-07-06T02:57:15;15.80;99.90
71868;DHT22;59738;48.324;14.230;2022-07-06T02:59:43;15.70;99.90
71868;DHT22;59738;48.324;14.230;2022-07-06T03:02:14;15.60;99.90
71868;DHT22;59738;48.324;14.230;2022-07-06T03:04:42;15.60;99.90
71868;DHT22;59738;48.324;14.230;2022-07-06T03:07:10;15.50;99.90
71868;DHT22;59738;48.324;14.230;2022-07-06T03:09:38;15.50;99.90
71868;DHT22;59738;48.324;14.230;2022-07-06T03:12:07;15.50;99.90
71868;DHT22;59738;48.324;14.230;2022-07-06T03:14:35;15.50;99.90
71868;DHT22;59738;48.324;14.230;2022-07-06T03:17:05;15.50;99.90
71868;DHT22;59738;48.324;14.230;2022-07-06T03:19:34;15.60;99.90
71868;DHT22;59738;48.324;14.230;2022-07-06T03:22:03;15.50;99.90
71868;DHT22;59738;48.324;14.230;2022-07-06T03:24:31;15.50;99.90
71868;DHT22;59738;48.324;14.230;2022-07-06T03:26:58;15.40;99.90
71868;DHT22;59738;48.324;14.230;2022-07-06T03:29:26;15.50;99.90
71868;DHT22;59738;48.324;14.230;2022-07-06T03:31:54;15.50;99.90
71868;DHT22;59738;48.324;14.230;2022-07-06T03:34:23;15.50;99.90
71868;DHT22;59738;48.324;14.230;2022-07-06T03:36:53;15.60;99.90
71868;DHT22;59738;48.324;14.230;2022-07-06T03:39:21;15.60;99.90
71868;DHT22;59738;48.324;14.230;2022-07-06T03:41:50;15.70;99.90
71868;DHT22;59738;48.324;14.230;2022-07-06T03:44:19;15.70;99.90
71868;DHT22;59738;48.324;14.230;2022-07-06T03:46:47;15.70;99.90
71868;DHT22;59738;48.324;14.230;2022-07-06T03:49:16;15.70;99.90
71868;DHT22;59738;48.324;14.230;2022-07-06T03:51:44;15.70;99.90
71868;DHT22;59738;48.324;14.230;2022-07-06T03:54:14;15.60;99.90
71868;DHT22;59738;48.324;14.230;2022-07-06T03:56:42;15.70;99.90
71868;DHT22;59738;48.324;14.230;2022-07-06T03:59:14;15.60;99.90
71868;DHT22;59738;48.324;14.230;2022-07-06T04:01:42;15.60;99.90
71868;DHT22;59738;48.324;14.230;2022-07-06T04:04:13;15.60;99.90
71868;DHT22;59738;48.324;14.230;2022-07-06T04:06:44;15.70;99.90
71868;DHT22;59738;48.324;14.230;2022-07-06T04:09:11;15.60;99.90
71868;DHT22;59738;48.324;14.230;2022-07-06T04:11:42;15.60;99.90
71868;DHT22;59738;48.324;14.230;2022-07-06T04:14:10;15.70;99.90
71868;DHT22;59738;48.324;14.230;2022-07-06T04:16:38;15.80;99.90
71868;DHT22;59738;48.324;14.230;2022-07-06T04:19:07;15.70;99.90
71868;DHT22;59738;48.324;14.230;2022-07-06T04:21:35;15.80;99.90
71868;DHT22;59738;48.324;14.230;2022-07-06T04:24:04;15.90;99.90
71868;DHT22;59738;48.324;14.230;2022-07-06T04:26:33;15.90;99.90
71868;DHT22;59738;48.324;14.230;2022-07-06T04:29:02;16.10;99.90
71868;DHT22;59738;48.324;14.230;2022-07-06T04:31:30;16.40;99.90
71868;DHT22;59738;48.324;14.230;2022-07-06T04:33:58;16.70;99.90
71868;DHT22;59738;48.324;14.230;2022-07-06T04:36:26;16.90;99.90
71868;DHT22;59738;48.324;14.230;2022-07-06T04:38:55;17.10;99.90
71868;DHT22;59738;48.324;14.230;2022-07-06T04:41:23;17.40;99.90
71868;DHT22;59738;48.324;14.230;2022-07-06T04:43:52;17.60;99.90
71868;DHT22;59738;48.324;14.230;2022-07-06T04:46:22;17.80;99.90
71868;DHT22;59738;48.324;14.230;2022-07-06T04:48:52;18.10;98.70
71868;DHT22;59738;48.324;14.230;2022-07-06T04:51:26;18.10;97.70
71868;DHT22;59738;48.324;14.230;2022-07-06T04:53:54;18.20;95.20
71868;DHT22;59738;48.324;14.230;2022-07-06T04:56:22;18.40;92.50
71868;DHT22;59738;48.324;14.230;2022-07-06T04:58:50;18.40;93.60
71868;DHT22;59738;48.324;14.230;2022-07-06T05:01:21;18.60;91.30
71868;DHT22;59738;48.324;14.230;2022-07-06T05:03:49;18.90;90.70
71868;DHT22;59738;48.324;14.230;2022-07-06T05:06:20;19.20;85.40
71868;DHT22;59738;48.324;14.230;2022-07-06T05:08:48;19.10;83.10
71868;DHT22;59738;48.324;14.230;2022-07-06T05:11:16;19.30;78.30
71868;DHT22;59738;48.324;14.230;2022-07-06T05:13:44;19.30;78.90
71868;DHT22;59738;48.324;14.230;2022-07-06T05:16:12;19.30;79.30
71868;DHT22;59738;48.324;14.230;2022-07-06T05:18:41;19.20;78.80
71868;DHT22;59738;48.324;14.230;2022-07-06T05:21:09;19.20;80.20
71868;DHT22;59738;48.324;14.230;2022-07-06T05:23:38;19.30;80.90
71868;DHT22;59738;48.324;14.230;2022-07-06T05:26:06;19.20;80.20
71868;DHT22;59738;48.324;14.230;2022-07-06T05:28:34;19.30;79.30
71868;DHT22;59738;48.324;14.230;2022-07-06T05:31:03;19.10;81.40
71868;DHT22;59738;48.324;14.230;2022-07-06T05:33:32;19.30;82.20
71868;DHT22;59738;48.324;14.230;2022-07-06T05:36:01;19.50;81.10
71868;DHT22;59738;48.324;14.230;2022-07-06T05:38:29;19.10;83.90
71868;DHT22;59738;48.324;14.230;2022-07-06T05:40:56;19.30;81.20
71868;DHT22;59738;48.324;14.230;2022-07-06T05:43:24;19.60;84.30
71868;DHT22;59738;48.324;14.230;2022-07-06T05:45:54;19.70;78.20
71868;DHT22;59738;48.324;14.230;2022-07-06T05:48:25;19.50;71.70
71868;DHT22;59738;48.324;14.230;2022-07-06T05:51:11;19.40;69.80
71868;DHT22;59738;48.324;14.230;2022-07-06T05:53:42;19.50;69.10
71868;DHT22;59738;48.324;14.230;2022-07-06T05:56:13;19.70;74.00
71868;DHT22;59738;48.324;14.230;2022-07-06T05:58:43;20.00;66.80
71868;DHT22;59738;48.324;14.230;2022-07-06T06:01:11;20.50;66.70
71868;DHT22;59738;48.324;14.230;2022-07-06T06:03:41;20.40;63.80
71868;DHT22;59738;48.324;14.230;2022-07-06T06:06:12;20.30;66.40
71868;DHT22;59738;48.324;14.230;2022-07-06T06:08:40;20.50;64.90
71868;DHT22;59738;48.324;14.230;2022-07-06T06:11:08;20.30;65.70
71868;DHT22;59738;48.324;14.230;2022-07-06T06:13:36;20.50;65.80
71868;DHT22;59738;48.324;14.230;2022-07-06T06:16:04;20.80;63.40
71868;DHT22;59738;48.324;14.230;2022-07-06T06:18:32;20.90;60.60
71868;DHT22;59738;48.324;14.230;2022-07-06T06:21:00;20.60;65.50
71868;DHT22;59738;48.324;14.230;2022-07-06T06:23:29;21.10;62.60
71868;DHT22;59738;48.324;14.230;2022-07-06T06:25:57;21.20;60.70
71868;DHT22;59738;48.324;14.230;2022-07-06T06:28:25;21.40;61.20
71868;DHT22;59738;48.324;14.230;2022-07-06T06:30:53;21.50;58.90
71868;DHT22;59738;48.324;14.230;2022-07-06T06:33:20;21.60;61.90
71868;DHT22;59738;48.324;14.230;2022-07-06T06:35:57;21.40;65.00
71868;DHT22;59738;48.324;14.230;2022-07-06T06:38:26;21.40;61.00
71868;DHT22;59738;48.324;14.230;2022-07-06T06:40:57;21.60;62.90
71868;DHT22;59738;48.324;14.230;2022-07-06T06:43:25;21.60;61.80
71868;DHT22;59738;48.324;14.230;2022-07-06T06:46:01;21.30;62.70
71868;DHT22;59738;48.324;14.230;2022-07-06T06:48:29;21.20;66.80
71868;DHT22;59738;48.324;14.230;2022-07-06T06:50:57;21.10;68.80
71868;DHT22;59738;48.324;14.230;2022-07-06T06:53:25;21.40;66.00
71868;DHT22;59738;48.324;14.230;2022-07-06T06:55:53;21.30;68.00
71868;DHT22;59738;48.324;14.230;2022-07-06T06:58:22;21.40;65.10
71868;DHT22;59738;48.324;14.230;2022-07-06T07:00:50;21.20;69.30
71868;DHT22;59738;48.324;14.230;2022-07-06T07:03:18;21.20;70.40
71868;DHT22;59738;48.324;14.230;2022-07-06T07:05:46;21.50;72.40
71868;DHT22;59738;48.324;14.230;2022-07-06T07:08:15;21.60;70.20
71868;DHT22;59738;48.324;14.230;2022-07-06T07:10:42;21.60;70.70
71868;DHT22;59738;48.324;14.230;2022-07-06T07:13:10;21.60;71.40
71868;DHT22;59738;48.324;14.230;2022-07-06T07:15:39;21.80;70.60
71868;DHT22;59738;48.324;14.230;2022-07-06T07:18:07;21.80;69.90
71868;DHT22;59738;48.324;14.230;2022-07-06T07:20:36;21.70;67.80
71868;DHT22;59738;48.324;14.230;2022-07-06T07:23:03;21.70;70.10
71868;DHT22;59738;48.324;14.230;2022-07-06T07:25:31;21.90;69.40
71868;DHT22;59738;48.324;14.230;2022-07-06T07:27:59;22.30;66.90
71868;DHT22;59738;48.324;14.230;2022-07-06T07:30:27;22.80;66.80
71868;DHT22;59738;48.324;14.230;2022-07-06T07:32:57;22.80;63.40
71868;DHT22;59738;48.324;14.230;2022-07-06T07:35:27;22.80;62.20
71868;DHT22;59738;48.324;14.230;2022-07-06T07:37:56;22.50;66.40
71868;DHT22;59738;48.324;14.230;2022-07-06T07:40:30;22.60;67.00
71868;DHT22;59738;48.324;14.230;2022-07-06T07:43:00;22.80;62.60
71868;DHT22;59738;48.324;14.230;2022-07-06T07:45:28;22.80;62.00
71868;DHT22;59738;48.324;14.230;2022-07-06T07:48:00;23.10;58.70
71868;DHT22;59738;48.324;14.230;2022-07-06T07:50:28;23.10;59.70
71868;DHT22;59738;48.324;14.230;2022-07-06T07:52:55;23.30;57.90
71868;DHT22;59738;48.324;14.230;2022-07-06T07:55:26;23.50;56.40
71868;DHT22;59738;48.324;14.230;2022-07-06T07:57:54;23.50;56.10
71868;DHT22;59738;48.324;14.230;2022-07-06T08:00:22;23.50;54.60
71868;DHT22;59738;48.324;14.230;2022-07-06T08:02:51;23.70;54.00
71868;DHT22;59738;48.324;14.230;2022-07-06T08:05:21;23.90;52.00
71868;DHT22;59738;48.324;14.230;2022-07-06T08:07:51;24.40;54.00
71868;DHT22;59738;48.324;14.230;2022-07-06T08:10:20;24.70;47.90
71868;DHT22;59738;48.324;14.230;2022-07-06T08:12:47;25.20;45.60
71868;DHT22;59738;48.324;14.230;2022-07-06T08:15:15;25.40;41.30
71868;DHT22;59738;48.324;14.230;2022-07-06T08:17:46;25.20;39.60
71868;DHT22;59738;48.324;14.230;2022-07-06T08:20:15;25.40;40.60
71868;DHT22;59738;48.324;14.230;2022-07-06T08:22:45;24.50;41.80
71868;DHT22;59738;48.324;14.230;2022-07-06T08:25:13;23.80;42.20
71868;DHT22;59738;48.324;14.230;2022-07-06T08:27:40;23.90;43.50
71868;DHT22;59738;48.324;14.230;2022-07-06T08:30:09;24.30;42.60
71868;DHT22;59738;48.324;14.230;2022-07-06T08:32:38;24.80;44.30
71868;DHT22;59738;48.324;14.230;2022-07-06T08:35:06;25.10;41.20
71868;DHT22;59738;48.324;14.230;2022-07-06T08:37:34;25.40;39.90
71868;DHT22;59738;48.324;14.230;2022-07-06T08:40:05;25.20;37.50
71868;DHT22;59738;48.324;14.230;2022-07-06T08:42:35;25.30;40.60
71868;DHT22;59738;48.324;14.230;2022-07-06T08:45:06;25.40;41.20
71868;DHT22;59738;48.324;14.230;2022-07-06T08:47:36;25.70;39.10
71868;DHT22;59738;48.324;14.230;2022-07-06T08:50:06;25.70;37.50
71868;DHT22;59738;48.324;14.230;2022-07-06T08:52:35;25.50;35.40
71868;DHT22;59738;48.324;14.230;2022-07-06T08:55:04;25.20;38.10
71868;DHT22;59738;48.324;14.230;2022-07-06T08:57:33;25.20;39.20
71868;DHT22;59738;48.324;14.230;2022-07-06T09:00:02;25.40;39.40
71868;DHT22;59738;48.324;14.230;2022-07-06T09:02:30;25.40;38.40
71868;DHT22;59738;48.324;14.230;2022-07-06T09:05:05;25.70;38.00
71868;DHT22;59738;48.324;14.230;2022-07-06T09:07:35;25.60;36.80
71868;DHT22;59738;48.324;14.230;2022-07-06T09:10:07;25.60;38.10
71868;DHT22;59738;48.324;14.230;2022-07-06T09:12:35;25.90;38.60
71868;DHT22;59738;48.324;14.230;2022-07-06T09:15:04;26.00;37.90
71868;DHT22;59738;48.324;14.230;2022-07-06T09:17:37;26.50;38.60
71868;DHT22;59738;48.324;14.230;2022-07-06T09:20:07;27.00;34.60
71868;DHT22;59738;48.324;14.230;2022-07-06T09:22:36;27.20;34.70
71868;DHT22;59738;48.324;14.230;2022-07-06T09:25:08;26.90;35.00
71868;DHT22;59738;48.324;14.230;2022-07-06T09:27:38;27.00;34.00
71868;DHT22;59738;48.324;14.230;2022-07-06T09:30:08;27.20;33.20
71868;DHT22;59738;48.324;14.230;2022-07-06T09:32:40;27.20;34.60
71868;DHT22;59738;48.324;14.230;2022-07-06T09:35:19;27.60;34.30
71868;DHT22;59738;48.324;14.230;2022-07-06T09:38:01;28.00;32.00
71868;DHT22;59738;48.324;14.230;2022-07-06T09:40:33;27.00;29.60
71868;DHT22;59738;48.324;14.230;2022-07-06T09:43:09;27.70;32.20
71868;DHT22;59738;48.324;14.230;2022-07-06T09:45:38;27.80;30.30
71868;DHT22;59738;48.324;14.230;2022-07-06T09:48:08;27.20;32.40
71868;DHT22;59738;48.324;14.230;2022-07-06T09:50:39;27.50;29.50
71868;DHT22;59738;48.324;14.230;2022-07-06T09:53:07;27.60;30.00
71868;DHT22;59738;48.324;14.230;2022-07-06T09:55:37;27.60;33.40
71868;DHT22;59738;48.324;14.230;2022-07-06T09:58:05;27.70;30.00
71868;DHT22;59738;48.324;14.230;2022-07-06T10:00:32;27.80;30.10
71868;DHT22;59738;48.324;14.230;2022-07-06T10:03:01;28.10;30.50
71868;DHT22;59738;48.324;14.230;2022-07-06T10:05:32;28.00;30.60
71868;DHT22;59738;48.324;14.230;2022-07-06T10:08:06;28.50;29.50
71868;DHT22;59738;48.324;14.230;2022-07-06T10:10:38;28.40;29.00
71868;DHT22;59738;48.324;14.230;2022-07-06T10:13:07;28.80;30.50
71868;DHT22;59738;48.324;14.230;2022-07-06T10:15:38;28.70;28.50
71868;DHT22;59738;48.324;14.230;2022-07-06T10:18:08;28.20;32.10
71868;DHT22;59738;48.324;14.230;2022-07-06T10:20:37;28.60;30.60
71868;DHT22;59738;48.324;14.230;2022-07-06T10:23:07;27.80;30.00
71868;DHT22;59738;48.324;14.230;2022-07-06T10:25:39;28.30;29.00
71868;DHT22;59738;48.324;14.230;2022-07-06T10:28:09;28.30;29.70
71868;DHT22;59738;48.324;14.230;2022-07-06T10:30:41;27.70;27.80
71868;DHT22;59738;48.324;14.230;2022-07-06T10:33:10;27.90;28.80
71868;DHT22;59738;48.324;14.230;2022-07-06T10:35:40;28.60;28.50
71868;DHT22;59738;48.324;14.230;2022-07-06T10:38:10;28.30;29.90
71868;DHT22;59738;48.324;14.230;2022-07-06T10:40:40;28.00;26.60
71868;DHT22;59738;48.324;14.230;2022-07-06T10:43:31;27.40;28.00
71868;DHT22;59738;48.324;14.230;2022-07-06T10:46:05;28.20;30.00
71868;DHT22;59738;48.324;14.230;2022-07-06T10:48:37;28.60;28.20
71868;DHT22;59738;48.324;14.230;2022-07-06T10:51:06;28.60;25.30
71868;DHT22;59738;48.324;14.230;2022-07-06T10:53:36;27.90;27.30
71868;DHT22;59738;48.324;14.230;2022-07-06T10:56:09;28.50;26.70
71868;DHT22;59738;48.324;14.230;2022-07-06T10:58:39;28.60;24.50
71868;DHT22;59738;48.324;14.230;2022-07-06T11:01:08;28.60;25.00
71868;DHT22;59738;48.324;14.230;2022-07-06T11:03:39;27.80;25.00
71868;DHT22;59738;48.324;14.230;2022-07-06T11:06:10;27.80;28.70
71868;DHT22;59738;48.324;14.230;2022-07-06T11:08:50;28.30;24.20
71868;DHT22;59738;48.324;14.230;2022-07-06T11:11:21;28.60;25.20
71868;DHT22;59738;48.324;14.230;2022-07-06T11:13:52;28.50;25.80
71868;DHT22;59738;48.324;14.230;2022-07-06T11:16:21;28.10;25.30
71868;DHT22;59738;48.324;14.230;2022-07-06T11:18:58;27.90;27.10
71868;DHT22;59738;48.324;14.230;2022-07-06T11:21:40;27.80;25.90
71868;DHT22;59738;48.324;14.230;2022-07-06T11:24:10;27.70;26.20
71868;DHT22;59738;48.324;14.230;2022-07-06T11:26:39;27.60;25.40
71868;DHT22;59738;48.324;14.230;2022-07-06T11:29:09;27.50;26.30
71868;DHT22;59738;48.324;14.230;2022-07-06T11:31:39;27.00;26.20
71868;DHT22;59738;48.324;14.230;2022-07-06T11:34:08;27.20;26.60
71868;DHT22;59738;48.324;14.230;2022-07-06T11:36:37;27.80;26.80
71868;DHT22;59738;48.324;14.230;2022-07-06T11:39:05;28.20;26.20
71868;DHT22;59738;48.324;14.230;2022-07-06T11:41:33;28.60;22.90
71868;DHT22;59738;48.324;14.230;2022-07-06T11:44:03;28.90;26.00
71868;DHT22;59738;48.324;14.230;2022-07-06T11:46:32;28.80;24.50
71868;DHT22;59738;48.324;14.230;2022-07-06T11:49:02;28.80;23.20
71868;DHT22;59738;48.324;14.230;2022-07-06T11:51:31;29.20;24.30
71868;DHT22;59738;48.324;14.230;2022-07-06T11:54:01;29.10;22.50
71868;DHT22;59738;48.324;14.230;2022-07-06T11:56:29;28.80;25.40
71868;DHT22;59738;48.324;14.230;2022-07-06T11:58:59;28.80;20.40
71868;DHT22;59738;48.324;14.230;2022-07-06T12:01:29;28.90;24.30
71868;DHT22;59738;48.324;14.230;2022-07-06T12:03:59;28.00;24.20
71868;DHT22;59738;48.324;14.230;2022-07-06T12:06:27;27.00;24.70
71868;DHT22;59738;48.324;14.230;2022-07-06T12:08:57;26.50;25.40
71868;DHT22;59738;48.324;14.230;2022-07-06T12:11:27;26.70;26.00
71868;DHT22;59738;48.324;14.230;2022-07-06T12:13:57;27.10;26.20
71868;DHT22;59738;48.324;14.230;2022-07-06T12:16:31;27.70;26.20
71868;DHT22;59738;48.324;14.230;2022-07-06T12:19:02;27.90;25.80
71868;DHT22;59738;48.324;14.230;2022-07-06T12:21:30;27.40;25.00
71868;DHT22;59738;48.324;14.230;2022-07-06T12:23:58;27.50;24.20
71868;DHT22;59738;48.324;14.230;2022-07-06T12:26:27;27.70;23.80
71868;DHT22;59738;48.324;14.230;2022-07-06T12:28:59;28.10;25.00
71868;DHT22;59738;48.324;14.230;2022-07-06T12:31:36;27.90;20.20
71868;DHT22;59738;48.324;14.230;2022-07-06T12:34:05;27.10;21.20
71868;DHT22;59738;48.324;14.230;2022-07-06T12:36:42;26.60;22.60
71868;DHT22;59738;48.324;14.230;2022-07-06T12:39:11;27.00;25.20
71868;DHT22;59738;48.324;14.230;2022-07-06T12:41:44;27.10;23.20
71868;DHT22;59738;48.324;14.230;2022-07-06T12:44:13;27.10;21.80
71868;DHT22;59738;48.324;14.230;2022-07-06T12:46:44;27.40;25.20
71868;DHT22;59738;48.324;14.230;2022-07-06T12:49:16;28.10;21.70
71868;DHT22;59738;48.324;14.230;2022-07-06T12:51:58;27.70;20.80
71868;DHT22;59738;48.324;14.230;2022-07-06T12:54:29;27.30;22.20
71868;DHT22;59738;48.324;14.230;2022-07-06T12:57:05;26.80;22.30
71868;DHT22;59738;48.324;14.230;2022-07-06T12:59:35;26.90;22.70
71868;DHT22;59738;48.324;14.230;2022-07-06T13:02:05;27.10;23.50
71868;DHT22;59738;48.324;14.230;2022-07-06T13:04:36;27.00;22.00
71868;DHT22;59738;48.324;14.230;2022-07-06T13:07:06;26.70;22.60
71868;DHT22;59738;48.324;14.230;2022-07-06T13:09:33;26.70;23.00
71868;DHT22;59738;48.324;14.230;2022-07-06T13:12:02;26.70;24.40
71868;DHT22;59738;48.324;14.230;2022-07-06T13:14:29;26.70;23.10
71868;DHT22;59738;48.324;14.230;2022-07-06T13:16:57;26.70;24.50
71868;DHT22;59738;48.324;14.230;2022-07-06T13:19:26;26.70;22.20
71868;DHT22;59738;48.324;14.230;2022-07-06T13:21:54;26.80;24.00
71868;DHT22;59738;48.324;14.230;2022-07-06T13:24:21;26.50;24.30
71868;DHT22;59738;48.324;14.230;2022-07-06T13:26:49;26.40;24.70
71868;DHT22;59738;48.324;14.230;2022-07-06T13:29:17;26.20;25.30
71868;DHT22;59738;48.324;14.230;2022-07-06T13:31:45;25.90;27.60
71868;DHT22;59738;48.324;14.230;2022-07-06T13:34:12;25.70;27.60
71868;DHT22;59738;48.324;14.230;2022-07-06T13:36:42;25.90;28.30
71868;DHT22;59738;48.324;14.230;2022-07-06T13:39:10;26.30;24.10
71868;DHT22;59738;48.324;14.230;2022-07-06T13:41:37;26.70;24.60
71868;DHT22;59738;48.324;14.230;2022-07-06T13:44:05;27.20;24.40
71868;DHT22;59738;48.324;14.230;2022-07-06T13:46:33;27.50;24.10
71868;DHT22;59738;48.324;14.230;2022-07-06T13:49:03;27.60;23.00
71868;DHT22;59738;48.324;14.230;2022-07-06T13:51:31;27.90;25.90
71868;DHT22;59738;48.324;14.230;2022-07-06T13:54:01;28.00;22.80
71868;DHT22;59738;48.324;14.230;2022-07-06T13:56:29;27.70;23.20
71868;DHT22;59738;48.324;14.230;2022-07-06T13:58:56;27.50;24.00
71868;DHT22;59738;48.324;14.230;2022-07-06T14:01:24;27.50;24.20
71868;DHT22;59738;48.324;14.230;2022-07-06T14:03:52;27.60;23.90
71868;DHT22;59738;48.324;14.230;2022-07-06T14:06:20;27.50;24.30
71868;DHT22;59738;48.324;14.230;2022-07-06T14:08:47;27.30;22.10
71868;DHT22;59738;48.324;14.230;2022-07-06T14:11:17;27.40;23.30
71868;DHT22;59738;48.324;14.230;2022-07-06T14:13:45;27.20;23.70
71868;DHT22;59738;48.324;14.230;2022-07-06T14:16:13;26.70;24.10
71868;DHT22;59738;48.324;14.230;2022-07-06T14:18:40;26.50;25.50
71868;DHT22;59738;48.324;14.230;2022-07-06T14:21:10;26.40;24.90
71868;DHT22;59738;48.324;14.230;2022-07-06T14:23:38;26.50;25.30
71868;DHT22;59738;48.324;14.230;2022-07-06T14:26:06;26.60;26.30
71868;DHT22;59738;48.324;14.230;2022-07-06T14:28:35;26.50;25.60
71868;DHT22;59738;48.324;14.230;2022-07-06T14:31:03;26.40;24.60
71868;DHT22;59738;48.324;14.230;2022-07-06T14:33:31;26.60;23.90
71868;DHT22;59738;48.324;14.230;2022-07-06T14:35:59;26.80;23.90
71868;DHT22;59738;48.324;14.230;2022-07-06T14:38:27;27.00;23.60
71868;DHT22;59738;48.324;14.230;2022-07-06T14:40:55;26.90;23.40
71868;DHT22;59738;48.324;14.230;2022-07-06T14:43:22;27.10;22.80
71868;DHT22;59738;48.324;14.230;2022-07-06T14:45:52;27.20;24.00
71868;DHT22;59738;48.324;14.230;2022-07-06T14:48:23;27.10;22.70
71868;DHT22;59738;48.324;14.230;2022-07-06T14:50:51;26.60;24.60
71868;DHT22;59738;48.324;14.230;2022-07-06T14:53:19;26.90;25.00
71868;DHT22;59738;48.324;14.230;2022-07-06T14:55:47;27.00;23.80
71868;DHT22;59738;48.324;14.230;2022-07-06T14:58:15;26.80;23.20
71868;DHT22;59738;48.324;14.230;2022-07-06T15:00:44;26.60;24.30
71868;DHT22;59738;48.324;14.230;2022-07-06T15:03:13;26.30;24.50
71868;DHT22;59738;48.324;14.230;2022-07-06T15:05:42;25.90;25.80
71868;DHT22;59738;48.324;14.230;2022-07-06T15:08:13;25.90;24.60
71868;DHT22;59738;48.324;14.230;2022-07-06T15:10:42;26.20;24.60
71868;DHT22;59738;48.324;14.230;2022-07-06T15:13:10;26.60;25.20
71868;DHT22;59738;48.324;14.230;2022-07-06T15:15:38;26.60;24.30
71868;DHT22;59738;48.324;14.230;2022-07-06T15:18:06;26.10;22.10
71868;DHT22;59738;48.324;14.230;2022-07-06T15:20:35;26.20;23.70
71868;DHT22;59738;48.324;14.230;2022-07-06T15:23:03;26.20;25.00
71868;DHT22;59738;48.324;14.230;2022-07-06T15:25:31;26.00;23.40
71868;DHT22;59738;48.324;14.230;2022-07-06T15:28:00;25.80;24.00